createdAt,value
2017-06-05T00:00:15.415Z,76.52
2017-06-05T00:00:55.884Z,76.04
2017-06-05T00:01:36.386Z,76.52
2017-06-05T00:02:16.888Z,76.32
2017-06-05T00:02:57.339Z,76.37
2017-06-05T00:03:37.873Z,75.79
2017-06-05T00:04:18.338Z,75.89
2017-06-05T00:04:58.832Z,75.98
2017-06-05T00:05:39.315Z,75.5
2017-06-05T00:06:19.858Z,75.7
2017-06-05T00:07:00.311Z,75.12
2017-06-05T00:07:40.811Z,75.21
2017-06-05T00:08:21.348Z,75.02
2017-06-05T00:09:01.814Z,75.15
2017-06-05T00:09:42.347Z,74.54
2017-06-05T00:10:22.844Z,74.83
2017-06-05T00:11:03.352Z,74.44
2017-06-05T00:11:43.832Z,74.48
2017-06-05T00:12:24.338Z,74.48
2017-06-05T00:13:04.818Z,74.39
2017-06-05T00:13:45.291Z,74.39
2017-06-05T00:14:25.810Z,74.39
2017-06-05T00:15:06.351Z,74.01
2017-06-05T00:15:46.845Z,74.39
2017-06-05T00:16:27.425Z,73.81
2017-06-05T00:17:07.926Z,73.72
2017-06-05T00:17:48.419Z,73.43
2017-06-05T00:18:28.933Z,73.14
2017-06-05T00:19:09.415Z,73.52
2017-06-05T00:19:49.917Z,73.04
2017-06-05T00:20:30.442Z,73.04
2017-06-05T00:21:10.936Z,73.43
2017-06-05T00:21:51.429Z,73.14
2017-06-05T00:22:31.909Z,73.14
2017-06-05T00:23:12.347Z,73.43
2017-06-05T00:23:52.837Z,72.75
2017-06-05T00:24:33.358Z,72.75
2017-06-05T00:25:13.856Z,73.14
2017-06-05T00:25:54.400Z,72.85
2017-06-05T00:26:34.950Z,72.95
2017-06-05T00:27:15.338Z,73.14
2017-06-05T00:27:55.829Z,72.66
2017-06-05T00:28:36.334Z,73.04
2017-06-05T00:29:16.860Z,72.85
2017-06-05T00:29:57.329Z,72.85
2017-06-05T00:30:37.851Z,72.75
2017-06-05T00:31:18.324Z,72.75
2017-06-05T00:31:58.896Z,72.47
2017-06-05T00:32:39.400Z,72.75
2017-06-05T00:33:19.900Z,72.5
2017-06-05T00:34:00.404Z,72.47
2017-06-05T00:34:40.861Z,72.31
2017-06-05T00:35:21.566Z,72.5
2017-06-05T00:36:01.864Z,72.56
2017-06-05T00:36:42.344Z,72.28
2017-06-05T00:37:22.841Z,72.5
2017-06-05T00:38:03.342Z,72.5
2017-06-05T00:38:43.843Z,72.37
2017-06-05T00:39:24.344Z,71.61
2017-06-05T00:40:04.842Z,72.37
2017-06-05T00:40:45.346Z,72.37
2017-06-05T00:41:25.809Z,72.47
2017-06-05T00:42:06.359Z,72.14
2017-06-05T00:42:46.910Z,73.1
2017-06-05T00:43:27.411Z,73.1
2017-06-05T00:44:07.955Z,73.14
2017-06-05T00:44:48.431Z,72.95
2017-06-05T00:45:29.081Z,72.95
2017-06-05T00:46:09.596Z,72.85
2017-06-05T00:46:50.163Z,73.04
2017-06-05T00:47:30.641Z,73.24
2017-06-05T00:48:11.153Z,73.04
2017-06-05T00:48:51.690Z,73.14
2017-06-05T00:49:32.153Z,72.95
2017-06-05T00:50:12.647Z,73.24
2017-06-05T00:50:53.137Z,73.04
2017-06-05T00:51:33.655Z,73.33
2017-06-05T00:52:14.182Z,73.14
2017-06-05T00:52:54.698Z,73.14
2017-06-05T00:53:35.897Z,73.04
2017-06-05T00:54:16.422Z,73.24
2017-06-05T00:54:56.953Z,72.47
2017-06-05T00:55:37.435Z,72.75
2017-06-05T00:56:17.957Z,72.75
2017-06-05T00:56:58.453Z,72.56
2017-06-05T00:57:38.951Z,72.56
2017-06-05T00:58:19.467Z,71.89
2017-06-05T00:59:00.005Z,71.41
2017-06-05T00:59:40.524Z,72.56
2017-06-05T01:00:20.984Z,72.66
2017-06-05T01:01:01.521Z,73.04
2017-06-05T01:01:41.968Z,73.24
2017-06-05T01:02:22.522Z,72.75
2017-06-05T01:03:03.000Z,72.66
2017-06-05T01:03:43.508Z,73.14
2017-06-05T01:04:24.018Z,72.95
2017-06-05T01:05:04.535Z,72.85
2017-06-05T01:05:45.048Z,72.75
2017-06-05T01:06:25.525Z,72.47
2017-06-05T01:07:06.076Z,72.28
2017-06-05T01:07:46.577Z,72.47
2017-06-05T01:08:27.067Z,72.56
2017-06-05T01:09:07.552Z,72.66
2017-06-05T01:09:48.084Z,72.56
2017-06-05T01:10:28.561Z,72.75
2017-06-05T01:11:09.102Z,72.37
2017-06-05T01:11:49.559Z,72.47
2017-06-05T01:12:30.084Z,71.61
2017-06-05T01:13:10.597Z,72.24
2017-06-05T01:13:51.070Z,72.14
2017-06-05T01:14:31.531Z,72.53
2017-06-05T01:15:12.019Z,72.43
2017-06-05T01:15:52.526Z,72.43
2017-06-05T01:16:33.085Z,73.1
2017-06-05T01:17:13.535Z,72.63
2017-06-05T01:17:54.084Z,73.1
2017-06-05T01:18:34.518Z,73.1
2017-06-05T01:19:15.037Z,73.58
2017-06-05T01:19:55.543Z,73.87
2017-06-05T01:20:36.012Z,73.3
2017-06-05T01:21:16.544Z,73.1
2017-06-05T01:21:57.048Z,73.3
2017-06-05T01:22:37.548Z,73.68
2017-06-05T01:23:18.079Z,73.39
2017-06-05T01:23:58.574Z,73.49
2017-06-05T01:24:39.075Z,73.49
2017-06-05T01:25:19.577Z,73.39
2017-06-05T01:26:00.079Z,73.68
2017-06-05T01:26:40.557Z,74.06
2017-06-05T01:27:21.088Z,73.58
2017-06-05T01:28:01.581Z,73.1
2017-06-05T01:28:42.064Z,73.33
2017-06-05T01:29:22.577Z,73.77
2017-06-05T01:30:03.075Z,73.58
2017-06-05T01:30:43.582Z,73.72
2017-06-05T01:31:24.096Z,73.87
2017-06-05T01:32:04.604Z,73.52
2017-06-05T01:32:45.128Z,73.04
2017-06-05T01:33:25.596Z,73.14
2017-06-05T01:34:06.092Z,73.14
2017-06-05T01:34:47.442Z,73.2
2017-06-05T01:35:27.931Z,72.56
2017-06-05T01:36:08.417Z,73.14
2017-06-05T01:36:48.958Z,72.75
2017-06-05T01:37:29.433Z,72.75
2017-06-05T01:38:09.937Z,73.33
2017-06-05T01:38:50.429Z,72.75
2017-06-05T01:39:30.937Z,72.47
2017-06-05T01:40:11.441Z,72.95
2017-06-05T01:40:51.959Z,72.66
2017-06-05T01:41:32.449Z,72.28
2017-06-05T01:42:12.949Z,72.56
2017-06-05T01:42:53.427Z,72.18
2017-06-05T01:43:33.948Z,72.37
2017-06-05T01:44:14.460Z,72.28
2017-06-05T01:44:54.943Z,72.56
2017-06-05T01:45:35.463Z,71.98
2017-06-05T01:46:15.960Z,72.08
2017-06-05T01:46:56.452Z,71.51
2017-06-05T01:47:36.956Z,71.51
2017-06-05T01:48:17.456Z,71.61
2017-06-05T01:48:57.930Z,71.22
2017-06-05T01:49:38.406Z,71.41
2017-06-05T01:50:18.929Z,72.28
2017-06-05T01:50:59.408Z,72.37
2017-06-05T01:51:39.892Z,72.56
2017-06-05T01:52:20.419Z,72.18
2017-06-05T01:53:00.889Z,72.47
2017-06-05T01:53:41.426Z,72.56
2017-06-05T01:54:21.929Z,72.28
2017-06-05T01:55:02.493Z,72.08
2017-06-05T01:55:43.012Z,72.37
2017-06-05T01:56:23.547Z,72.37
2017-06-05T01:57:04.019Z,72.56
2017-06-05T01:57:44.507Z,72.18
2017-06-05T01:58:25.033Z,72.47
2017-06-05T01:59:05.565Z,72.28
2017-06-05T01:59:46.067Z,72.56
2017-06-05T02:00:26.531Z,72.37
2017-06-05T02:01:07.076Z,72.28
2017-06-05T02:01:47.547Z,71.61
2017-06-05T02:02:28.085Z,72.37
2017-06-05T02:03:08.587Z,72.37
2017-06-05T02:03:49.069Z,72.37
2017-06-05T02:04:29.547Z,72.56
2017-06-05T02:05:10.056Z,72.85
2017-06-05T02:05:50.547Z,72.47
2017-06-05T02:06:31.054Z,72.85
2017-06-05T02:07:11.555Z,72.66
2017-06-05T02:07:52.027Z,72.37
2017-06-05T02:08:32.517Z,72.56
2017-06-05T02:09:13.081Z,72.18
2017-06-05T02:09:53.570Z,72.47
2017-06-05T02:10:34.101Z,72.47
2017-06-05T02:11:14.613Z,72.28
2017-06-05T02:11:55.073Z,72.47
2017-06-05T02:12:35.558Z,72.28
2017-06-05T02:13:16.069Z,72.47
2017-06-05T02:13:56.572Z,72.56
2017-06-05T02:14:37.090Z,72.66
2017-06-05T02:15:17.583Z,72.47
2017-06-05T02:15:58.092Z,72.56
2017-06-05T02:16:38.561Z,72.47
2017-06-05T02:17:19.070Z,72.66
2017-06-05T02:17:59.564Z,72.33
2017-06-05T02:18:40.085Z,72.47
2017-06-05T02:20:38.313Z,72.85
2017-06-05T02:21:18.815Z,72.72
2017-06-05T02:21:59.324Z,73.1
2017-06-05T02:22:39.808Z,73.49
2017-06-05T02:23:20.313Z,73.58
2017-06-05T02:24:00.823Z,73.81
2017-06-05T02:24:41.326Z,73.52
2017-06-05T02:25:21.813Z,73.14
2017-06-05T02:26:02.288Z,72.85
2017-06-05T02:26:42.817Z,72.66
2017-06-05T02:27:23.346Z,72.95
2017-06-05T02:28:03.829Z,72.95
2017-06-05T02:28:44.339Z,73.14
2017-06-05T02:29:24.830Z,72.95
2017-06-05T02:30:05.318Z,72.95
2017-06-05T02:30:45.822Z,73.14
2017-06-05T02:31:26.313Z,72.66
2017-06-05T02:32:06.806Z,72.66
2017-06-05T02:32:47.317Z,73.04
2017-06-05T02:33:27.840Z,73.04
2017-06-05T02:34:08.339Z,72.66
2017-06-05T02:34:48.847Z,73.14
2017-06-05T02:35:29.333Z,73.04
2017-06-05T02:36:09.890Z,73.14
2017-06-05T02:36:50.368Z,72.95
2017-06-05T02:37:30.882Z,73.33
2017-06-05T02:38:11.385Z,73.33
2017-06-05T02:38:51.854Z,72.47
2017-06-05T02:39:32.345Z,73.04
2017-06-05T02:40:12.878Z,73.14
2017-06-05T02:40:53.354Z,73.39
2017-06-05T02:41:33.846Z,73.72
2017-06-05T02:42:14.356Z,73.58
2017-06-05T02:42:54.872Z,73.49
2017-06-05T02:43:35.391Z,73.87
2017-06-05T02:44:15.839Z,73.81
2017-06-05T02:44:56.330Z,73.33
2017-06-05T02:45:36.866Z,73.3
2017-06-05T02:46:17.342Z,73.91
2017-06-05T02:46:57.831Z,73.87
2017-06-05T02:47:38.338Z,73.62
2017-06-05T02:48:18.983Z,73.33
2017-06-05T02:48:59.434Z,73.14
2017-06-05T02:49:39.964Z,73.52
2017-06-05T02:50:20.470Z,73.91
2017-06-05T02:51:00.973Z,73.43
2017-06-05T02:51:41.487Z,73.14
2017-06-05T02:52:21.975Z,73.33
2017-06-05T02:53:02.490Z,73.14
2017-06-05T02:53:42.993Z,73.81
2017-06-05T02:54:23.513Z,73.43
2017-06-05T02:55:04.024Z,73.52
2017-06-05T02:55:44.526Z,73.43
2017-06-05T02:56:25.049Z,73.14
2017-06-05T02:57:05.542Z,73.33
2017-06-05T02:57:46.043Z,73.24
2017-06-05T02:58:26.552Z,72.95
2017-06-05T02:59:07.056Z,73.43
2017-06-05T02:59:47.546Z,73.24
2017-06-05T03:00:28.063Z,73.14
2017-06-05T03:01:08.553Z,72.85
2017-06-05T03:01:49.040Z,73.14
2017-06-05T03:02:29.547Z,73.33
2017-06-05T03:03:10.079Z,73.14
2017-06-05T03:03:50.748Z,72.75
2017-06-05T03:04:31.225Z,73.24
2017-06-05T03:05:11.756Z,73.04
2017-06-05T03:05:52.209Z,73.24
2017-06-05T03:06:32.757Z,72.85
2017-06-05T03:07:13.299Z,72.66
2017-06-05T03:07:53.725Z,72.75
2017-06-05T03:08:34.222Z,72.75
2017-06-05T03:09:14.693Z,72.95
2017-06-05T03:09:55.191Z,72.56
2017-06-05T03:10:35.677Z,72.85
2017-06-05T03:11:16.188Z,73.14
2017-06-05T03:11:56.685Z,72.75
2017-06-05T03:12:37.202Z,72.75
2017-06-05T03:13:17.684Z,72.85
2017-06-05T03:13:58.184Z,72.28
2017-06-05T03:14:38.709Z,72.18
2017-06-05T03:15:19.276Z,72.47
2017-06-05T03:15:59.796Z,72.75
2017-06-05T03:16:40.427Z,73.04
2017-06-05T03:17:20.893Z,72.95
2017-06-05T03:18:01.379Z,72.85
2017-06-05T03:18:41.869Z,72.66
2017-06-05T03:19:22.374Z,72.85
2017-06-05T03:20:02.864Z,72.56
2017-06-05T03:20:43.377Z,72.47
2017-06-05T03:21:23.894Z,72.47
2017-06-05T03:22:04.419Z,72.47
2017-06-05T03:22:44.926Z,72.37
2017-06-05T03:23:25.385Z,72.08
2017-06-05T03:24:05.846Z,72.47
2017-06-05T03:24:46.357Z,72.08
2017-06-05T03:25:26.874Z,72.28
2017-06-05T03:26:07.393Z,72.66
2017-06-05T03:26:47.895Z,72.56
2017-06-05T03:27:28.329Z,72.37
2017-06-05T03:28:08.828Z,72.47
2017-06-05T03:28:49.309Z,72.56
2017-06-05T03:29:29.786Z,72.28
2017-06-05T03:30:10.312Z,72.37
2017-06-05T03:30:50.776Z,72.37
2017-06-05T03:31:31.269Z,72.56
2017-06-05T03:32:11.771Z,72.18
2017-06-05T03:32:52.261Z,72.56
2017-06-05T03:33:32.780Z,72.66
2017-06-05T03:34:13.334Z,72.28
2017-06-05T03:34:53.785Z,72.28
2017-06-05T03:35:34.284Z,72.56
2017-06-05T03:36:14.758Z,72.37
2017-06-05T03:36:55.274Z,71.41
2017-06-05T03:37:35.760Z,71.61
2017-06-05T03:38:16.215Z,71.61
2017-06-05T03:38:56.759Z,71.61
2017-06-05T03:39:37.214Z,71.61
2017-06-05T03:40:17.743Z,72.28
2017-06-05T03:40:58.210Z,71.22
2017-06-05T03:41:38.715Z,71.7
2017-06-05T03:42:19.194Z,71.8
2017-06-05T03:42:59.706Z,71.22
2017-06-05T03:43:40.223Z,71.51
2017-06-05T03:44:20.707Z,71.22
2017-06-05T03:45:01.241Z,71.51
2017-06-05T03:45:41.711Z,71.55
2017-06-05T03:46:22.211Z,71.61
2017-06-05T03:47:02.682Z,71.73
2017-06-05T03:47:43.232Z,71.7
2017-06-05T03:48:23.706Z,71.93
2017-06-05T03:49:04.253Z,71.55
2017-06-05T03:49:44.740Z,71.22
2017-06-05T03:50:25.270Z,71.31
2017-06-05T03:51:05.754Z,71.31
2017-06-05T03:51:46.241Z,71.25
2017-06-05T03:52:26.763Z,70.87
2017-06-05T03:53:07.229Z,70.84
2017-06-05T03:53:47.740Z,70.97
2017-06-05T03:54:28.208Z,71.16
2017-06-05T03:55:08.704Z,71.16
2017-06-05T03:55:49.338Z,71.16
2017-06-05T03:56:29.850Z,71.06
2017-06-05T03:57:10.303Z,70.97
2017-06-05T03:57:50.821Z,71.06
2017-06-05T03:58:31.369Z,71.06
2017-06-05T03:59:11.841Z,70.68
2017-06-05T03:59:52.351Z,70.45
2017-06-05T04:00:32.848Z,70.84
2017-06-05T04:01:13.350Z,70.87
2017-06-05T04:01:53.913Z,70.64
2017-06-05T04:02:34.356Z,71.06
2017-06-05T04:03:14.888Z,70.68
2017-06-05T04:03:55.412Z,71.12
2017-06-05T04:04:35.836Z,71.12
2017-06-05T04:05:16.347Z,70.93
2017-06-05T04:05:56.821Z,71.03
2017-06-05T04:06:37.564Z,71.61
2017-06-05T04:07:18.059Z,71.61
2017-06-05T04:07:58.572Z,71.89
2017-06-05T04:08:39.116Z,71.89
2017-06-05T04:09:19.562Z,71.61
2017-06-05T04:10:00.038Z,71.31
2017-06-05T04:10:40.538Z,71.31
2017-06-05T04:11:21.054Z,72.02
2017-06-05T04:12:01.533Z,71.8
2017-06-05T04:12:42.033Z,71.55
2017-06-05T04:13:22.529Z,71.41
2017-06-05T04:14:03.115Z,71.83
2017-06-05T04:14:43.527Z,71.55
2017-06-05T04:15:24.021Z,71.55
2017-06-05T04:16:04.506Z,71.35
2017-06-05T04:16:45.006Z,71.16
2017-06-05T04:17:25.526Z,70.97
2017-06-05T04:18:06.022Z,71.06
2017-06-05T04:18:46.538Z,70.87
2017-06-05T04:19:27.034Z,70.87
2017-06-05T04:20:07.991Z,70.58
2017-06-05T04:20:48.504Z,70.97
2017-06-05T04:21:28.993Z,70.68
2017-06-05T04:22:09.563Z,71.06
2017-06-05T04:22:50.052Z,70.49
2017-06-05T04:23:30.533Z,70.29
2017-06-05T04:24:11.044Z,70.29
2017-06-05T04:24:51.478Z,70.29
2017-06-05T04:25:31.976Z,70.39
2017-06-05T04:26:12.469Z,70.39
2017-06-05T04:26:52.960Z,70.39
2017-06-05T04:27:33.471Z,70.01
2017-06-05T04:28:13.989Z,70.39
2017-06-05T04:28:54.477Z,70.29
2017-06-05T04:29:34.990Z,71.16
2017-06-05T04:30:15.442Z,70.49
2017-06-05T04:30:55.979Z,70.39
2017-06-05T04:31:36.530Z,70.29
2017-06-05T04:32:17.264Z,70.1
2017-06-05T04:32:57.798Z,70.49
2017-06-05T04:33:38.316Z,70.68
2017-06-05T04:34:18.830Z,70.68
2017-06-05T04:34:59.314Z,70.87
2017-06-05T04:35:39.782Z,71.06
2017-06-05T04:36:20.343Z,71.35
2017-06-05T04:37:00.850Z,70.78
2017-06-05T04:37:41.354Z,70.68
2017-06-05T04:38:21.837Z,70.87
2017-06-05T04:39:02.341Z,70.78
2017-06-05T04:39:42.836Z,71.16
2017-06-05T04:40:23.340Z,71.16
2017-06-05T04:41:03.848Z,70.97
2017-06-05T04:41:44.345Z,70.78
2017-06-05T04:42:24.837Z,70.97
2017-06-05T04:43:05.399Z,71.25
2017-06-05T04:43:45.874Z,71.16
2017-06-05T04:44:26.366Z,71.45
2017-06-05T04:45:06.875Z,70.87
2017-06-05T04:45:47.380Z,70.58
2017-06-05T04:46:27.869Z,70.78
2017-06-05T04:47:08.357Z,71.1
2017-06-05T04:47:48.854Z,71.19
2017-06-05T04:48:29.355Z,71
2017-06-05T04:49:09.864Z,71.06
2017-06-05T04:49:50.349Z,71
2017-06-05T04:50:30.875Z,70.97
2017-06-05T04:51:11.330Z,71.25
2017-06-05T04:51:51.812Z,71.64
2017-06-05T04:52:32.325Z,71.83
2017-06-05T04:53:12.854Z,71.83
2017-06-05T04:53:53.317Z,72.41
2017-06-05T04:54:33.832Z,71.93
2017-06-05T04:55:14.347Z,72.5
2017-06-05T04:55:54.893Z,72.41
2017-06-05T04:56:35.455Z,72.41
2017-06-05T04:57:15.907Z,72.41
2017-06-05T04:57:56.399Z,71.64
2017-06-05T04:58:36.894Z,71.45
2017-06-05T04:59:17.407Z,71.77
2017-06-05T04:59:57.906Z,71.96
2017-06-05T05:00:38.406Z,71.48
2017-06-05T05:01:18.911Z,70.9
2017-06-05T05:01:59.392Z,71
2017-06-05T05:02:39.903Z,71.29
2017-06-05T05:03:20.429Z,70.9
2017-06-05T05:04:00.904Z,71.1
2017-06-05T05:04:41.407Z,71.1
2017-06-05T05:05:21.930Z,70.72
2017-06-05T05:06:02.430Z,70.62
2017-06-05T05:06:42.961Z,70.62
2017-06-05T05:07:23.420Z,70.52
2017-06-05T05:08:03.957Z,70.62
2017-06-05T05:08:44.475Z,69.75
2017-06-05T05:09:24.955Z,70.43
2017-06-05T05:10:05.468Z,70.29
2017-06-05T05:10:46.149Z,70.39
2017-06-05T05:11:26.627Z,70.78
2017-06-05T05:12:07.384Z,71.16
2017-06-05T05:12:47.684Z,71.45
2017-06-05T05:13:28.123Z,70.97
2017-06-05T05:14:08.631Z,71.64
2017-06-05T05:14:49.155Z,71.25
2017-06-05T05:15:29.680Z,71.31
2017-06-05T05:16:10.143Z,71.35
2017-06-05T05:16:50.643Z,71.25
2017-06-05T05:19:09.221Z,71.45
2017-06-05T05:19:49.697Z,71.73
2017-06-05T05:21:37.749Z,71.16
2017-06-05T05:22:18.215Z,70.97
2017-06-05T05:22:58.745Z,70.68
2017-06-05T05:23:39.292Z,71.06
2017-06-05T05:24:19.757Z,70.68
2017-06-05T05:25:00.275Z,70.97
2017-06-05T05:25:40.776Z,70.97
2017-06-05T05:26:21.311Z,70.87
2017-06-05T05:27:01.774Z,70.78
2017-06-05T05:27:42.266Z,70.39
2017-06-05T05:28:22.771Z,70.97
2017-06-05T05:29:03.252Z,70.97
2017-06-05T05:29:43.719Z,71
2017-06-05T05:30:24.254Z,71.1
2017-06-05T05:32:27.471Z,70.23
2017-06-05T05:34:12.997Z,69.46
2017-06-05T05:34:53.472Z,69.27
2017-06-05T05:35:34.015Z,69.27
2017-06-05T05:36:14.495Z,69.46
2017-06-05T05:36:54.964Z,69.18
2017-06-05T05:37:35.472Z,69.08
2017-06-05T05:38:15.987Z,69.08
2017-06-05T05:38:56.523Z,68.41
2017-06-05T05:39:36.999Z,69.08
2017-06-05T05:40:17.514Z,68.79
2017-06-05T05:40:58.009Z,68.6
2017-06-05T05:41:38.483Z,68.21
2017-06-05T05:42:18.971Z,68.41
2017-06-05T05:42:59.489Z,68.51
2017-06-05T05:43:40.019Z,67.83
2017-06-05T05:44:20.527Z,68.12
2017-06-05T05:45:01.043Z,68.41
2017-06-05T05:45:41.560Z,68.31
2017-06-05T05:46:22.042Z,68.98
2017-06-05T05:47:02.556Z,68.6
2017-06-05T05:47:43.054Z,68.98
2017-06-05T05:51:14.980Z,69.02
2017-06-05T05:51:55.486Z,68.92
2017-06-05T05:52:36.037Z,68.98
2017-06-05T05:53:16.498Z,68.83
2017-06-05T05:53:57.109Z,68.44
2017-06-05T05:54:37.544Z,68.41
2017-06-05T05:55:18.087Z,68.35
2017-06-05T05:55:58.635Z,68.31
2017-06-05T05:56:39.110Z,68.31
2017-06-05T05:57:19.611Z,68.98
2017-06-05T05:58:00.213Z,68.89
2017-06-05T05:58:40.772Z,69.27
2017-06-05T05:59:21.853Z,69.37
2017-06-05T06:00:05.324Z,69.46
2017-06-05T06:00:45.960Z,69.56
2017-06-05T06:01:26.845Z,69.66
2017-06-05T06:02:07.721Z,69.37
2017-06-05T06:02:49.078Z,69.66
2017-06-05T06:03:29.517Z,69.08
2017-06-05T06:04:10.128Z,69.79
2017-06-05T06:04:50.604Z,69.56
2017-06-05T06:05:31.056Z,69.12
2017-06-05T06:06:11.700Z,69.08
2017-06-05T06:06:52.215Z,68.63
2017-06-05T06:07:32.761Z,69.02
2017-06-05T06:08:13.455Z,68.83
2017-06-05T06:08:53.949Z,68.54
2017-06-05T06:09:34.540Z,68.83
2017-06-05T06:10:15.042Z,69.85
2017-06-05T06:10:55.501Z,69.5
2017-06-05T06:11:36.023Z,69.4
2017-06-05T06:12:17.177Z,69.6
2017-06-05T06:12:57.855Z,68.83
2017-06-05T06:13:38.508Z,68.92
2017-06-05T06:14:19.103Z,69.21
2017-06-05T06:14:59.497Z,69.5
2017-06-05T06:15:40.010Z,69.31
2017-06-05T06:16:20.436Z,69.6
2017-06-05T06:17:00.974Z,69.31
2017-06-05T06:17:41.406Z,69.6
2017-06-05T06:18:22.042Z,69.02
2017-06-05T06:19:02.931Z,68.38
2017-06-05T06:19:43.442Z,68.57
2017-06-05T06:20:24.623Z,68.29
2017-06-05T06:21:05.124Z,68.54
2017-06-05T06:21:45.645Z,68.54
2017-06-05T06:22:26.105Z,68.92
2017-06-05T06:23:06.609Z,69.02
2017-06-05T06:23:47.166Z,68.83
2017-06-05T06:24:28.235Z,68.92
2017-06-05T06:25:08.816Z,68.92
2017-06-05T06:25:49.368Z,69.02
2017-06-05T06:26:29.949Z,68.44
2017-06-05T06:27:10.457Z,68.83
2017-06-05T06:27:51.008Z,68.83
2017-06-05T06:28:31.514Z,68.57
2017-06-05T06:29:11.997Z,68.86
2017-06-05T06:29:52.490Z,69.06
2017-06-05T06:30:34.970Z,68.96
2017-06-05T06:31:14.387Z,68.96
2017-06-05T06:31:55.151Z,69.06
2017-06-05T06:32:35.608Z,68.86
2017-06-05T06:33:17.106Z,68.67
2017-06-05T06:33:57.837Z,68.96
2017-06-05T06:34:38.370Z,68.83
2017-06-05T06:35:18.790Z,69.06
2017-06-05T06:35:59.701Z,69.24
2017-06-05T06:36:40.216Z,68.67
2017-06-05T06:37:20.718Z,68.38
2017-06-05T06:38:01.220Z,68.48
2017-06-05T06:38:41.736Z,68.29
2017-06-05T06:39:22.231Z,68.48
2017-06-05T06:40:02.738Z,68.38
2017-06-05T06:40:43.294Z,68.38
2017-06-05T06:41:23.808Z,68.38
2017-06-05T06:42:04.285Z,69.06
2017-06-05T06:42:45.074Z,68.96
2017-06-05T06:43:25.609Z,69.15
2017-06-05T06:44:06.062Z,69.44
2017-06-05T06:44:46.534Z,69.63
2017-06-05T06:45:27.036Z,69.82
2017-06-05T06:46:07.517Z,69.63
2017-06-05T06:46:48.034Z,69.92
2017-06-05T06:47:28.521Z,70.21
2017-06-05T06:48:08.999Z,70.21
2017-06-05T06:48:49.482Z,70.3
2017-06-05T06:49:29.987Z,70.21
2017-06-05T06:50:10.503Z,70.37
2017-06-05T06:50:51.033Z,70.46
2017-06-05T06:51:31.725Z,70.37
2017-06-05T06:52:12.238Z,70.5
2017-06-05T06:52:52.746Z,70.07
2017-06-05T06:53:33.241Z,70.37
2017-06-05T06:54:13.748Z,70.75
2017-06-05T06:54:54.251Z,71.04
2017-06-05T06:55:34.793Z,70.75
2017-06-05T06:56:15.255Z,71.23
2017-06-05T06:56:55.741Z,70.94
2017-06-05T06:57:36.229Z,71.14
2017-06-05T06:58:16.729Z,70.94
2017-06-05T06:58:57.287Z,70.4
2017-06-05T06:59:37.799Z,70.21
2017-06-05T07:00:18.299Z,70.21
2017-06-05T07:00:58.817Z,69.73
2017-06-05T07:01:39.293Z,69.53
2017-06-05T07:02:19.826Z,69.44
2017-06-05T07:03:00.311Z,69.38
2017-06-05T07:03:44.490Z,69.57
2017-06-05T07:04:24.976Z,68.9
2017-06-05T07:05:05.495Z,68.6
2017-06-05T07:05:45.971Z,68.22
2017-06-05T07:06:26.485Z,68.22
2017-06-05T07:07:06.972Z,68.16
2017-06-05T07:07:47.480Z,68.06
2017-06-05T07:08:27.981Z,68.06
2017-06-05T07:09:08.503Z,68.06
2017-06-05T07:09:48.973Z,67.77
2017-06-05T07:10:29.452Z,67.19
2017-06-05T07:11:09.996Z,67.1
2017-06-05T07:11:50.533Z,67.68
2017-06-05T07:12:31.062Z,67
2017-06-05T07:13:11.531Z,68.06
2017-06-05T07:13:52.038Z,68.06
2017-06-05T07:14:32.526Z,68.03
2017-06-05T07:15:13.045Z,68.32
2017-06-05T07:15:53.547Z,68.41
2017-06-05T07:16:34.021Z,68.44
2017-06-05T07:17:14.524Z,68.6
2017-06-05T07:17:55.060Z,68.7
2017-06-05T07:18:35.623Z,68.51
2017-06-05T07:19:16.084Z,68.7
2017-06-05T07:19:56.635Z,68.32
2017-06-05T07:20:37.162Z,68.51
2017-06-05T07:21:17.656Z,68.41
2017-06-05T07:21:58.174Z,68.32
2017-06-05T07:22:38.811Z,68.03
2017-06-05T07:23:19.333Z,68.16
2017-06-05T07:23:59.808Z,67.97
2017-06-05T07:24:40.290Z,68.35
2017-06-05T07:25:20.815Z,68.06
2017-06-05T07:26:01.296Z,67.77
2017-06-05T07:26:41.798Z,67.68
2017-06-05T07:27:22.304Z,67.77
2017-06-05T07:28:02.804Z,67.29
2017-06-05T07:28:43.325Z,67.19
2017-06-05T07:29:23.814Z,67.1
2017-06-05T07:30:04.272Z,66.91
2017-06-05T07:30:44.819Z,66.91
2017-06-05T07:31:25.370Z,67.65
2017-06-05T07:32:05.854Z,67.65
2017-06-05T07:32:46.298Z,67.45
2017-06-05T07:33:26.894Z,67.87
2017-06-05T07:34:07.350Z,67.74
2017-06-05T07:34:47.864Z,68.22
2017-06-05T07:35:28.371Z,68.03
2017-06-05T07:36:08.929Z,68.32
2017-06-05T07:36:49.450Z,68.03
2017-06-05T07:37:29.948Z,68.22
2017-06-05T07:38:10.462Z,68.13
2017-06-05T07:38:50.971Z,68.41
2017-06-05T07:39:31.483Z,68.41
2017-06-05T07:40:12.008Z,68.41
2017-06-05T07:40:52.520Z,68.41
2017-06-05T07:41:33.052Z,68.86
2017-06-05T07:42:13.565Z,69.82
2017-06-05T07:42:54.207Z,70.07
2017-06-05T07:43:34.728Z,71.33
2017-06-05T07:44:15.252Z,72.67
2017-06-05T07:44:55.771Z,72.67
2017-06-05T07:45:36.299Z,72.96
2017-06-05T07:46:16.798Z,73.54
2017-06-05T07:46:57.353Z,74.05
2017-06-05T07:47:37.850Z,74.05
2017-06-05T07:48:18.348Z,73.96
2017-06-05T07:48:59.170Z,73.67
2017-06-05T07:49:39.596Z,73.38
2017-06-05T07:50:20.151Z,73.96
2017-06-05T07:51:00.659Z,73.9
2017-06-05T07:51:41.379Z,74.09
2017-06-05T07:52:22.089Z,73.8
2017-06-05T07:53:02.749Z,73.71
2017-06-05T07:53:43.304Z,73.13
2017-06-05T07:54:23.835Z,73.13
2017-06-05T07:55:04.345Z,72.55
2017-06-05T07:55:44.848Z,72.65
2017-06-05T07:56:25.383Z,72.36
2017-06-05T07:57:05.892Z,72.55
2017-06-05T07:57:46.705Z,72.59
2017-06-05T07:58:27.331Z,72.65
2017-06-05T07:59:07.890Z,72.84
2017-06-05T07:59:48.394Z,72.74
2017-06-05T08:00:28.912Z,72.55
2017-06-05T08:01:09.413Z,72.65
2017-06-05T08:01:49.891Z,72.94
2017-06-05T08:02:30.402Z,72.94
2017-06-05T08:03:10.961Z,72.94
2017-06-05T08:03:51.439Z,72.74
2017-06-05T08:04:31.971Z,73.51
2017-06-05T08:05:12.519Z,73.22
2017-06-05T08:05:53.207Z,72.84
2017-06-05T08:06:33.725Z,73.71
2017-06-05T08:07:14.218Z,74.09
2017-06-05T08:07:54.696Z,74.48
2017-06-05T08:08:35.154Z,74.09
2017-06-05T08:09:15.671Z,74.57
2017-06-05T08:09:56.188Z,74.48
2017-06-05T08:10:36.668Z,74.19
2017-06-05T08:11:17.480Z,74.48
2017-06-05T08:11:58.011Z,73.71
2017-06-05T08:12:38.489Z,73.96
2017-06-05T08:13:19.029Z,75.49
2017-06-05T08:13:59.467Z,75.24
2017-06-05T08:14:39.990Z,75.54
2017-06-05T08:15:20.536Z,75.63
2017-06-05T08:16:00.969Z,75.44
2017-06-05T08:16:41.471Z,75.82
2017-06-05T08:17:22.056Z,75.15
2017-06-05T08:18:02.539Z,74.96
2017-06-05T08:18:43.047Z,74.38
2017-06-05T08:19:23.577Z,74.32
2017-06-05T08:20:04.278Z,73.26
2017-06-05T08:20:44.628Z,73.16
2017-06-05T08:21:25.078Z,73.46
2017-06-05T08:22:05.594Z,72.97
2017-06-05T08:22:46.109Z,73.22
2017-06-05T08:23:26.614Z,73.8
2017-06-05T08:24:07.124Z,74.09
2017-06-05T08:24:47.737Z,73.42
2017-06-05T08:25:28.193Z,73.71
2017-06-05T08:26:08.705Z,73.74
2017-06-05T08:26:49.206Z,73.94
2017-06-05T08:27:29.722Z,73.46
2017-06-05T08:28:10.230Z,72.68
2017-06-05T08:28:50.714Z,72.11
2017-06-05T08:29:31.232Z,72.01
2017-06-05T08:30:11.747Z,71.62
2017-06-05T08:30:52.221Z,71.69
2017-06-05T08:31:32.702Z,71.24
2017-06-05T08:32:13.262Z,70.66
2017-06-05T08:32:53.702Z,70.86
2017-06-05T08:33:34.209Z,71.34
2017-06-05T08:34:14.713Z,71.14
2017-06-05T08:34:55.174Z,71.81
2017-06-05T08:35:35.683Z,71.37
2017-06-05T08:36:16.193Z,70.21
2017-06-05T08:36:56.680Z,70.6
2017-06-05T08:37:37.165Z,70.02
2017-06-05T08:38:17.674Z,69.93
2017-06-05T08:38:58.454Z,68.96
2017-06-05T08:39:38.954Z,68.68
2017-06-05T08:40:19.454Z,68.68
2017-06-05T08:40:59.998Z,68.58
2017-06-05T08:41:40.485Z,68.58
2017-06-05T08:42:20.979Z,68.58
2017-06-05T08:43:01.488Z,68.38
2017-06-05T08:43:41.987Z,68.35
2017-06-05T08:44:22.488Z,68.54
2017-06-05T08:45:03.014Z,68.54
2017-06-05T08:45:43.555Z,69.12
2017-06-05T08:46:24.040Z,68.64
2017-06-05T08:47:04.553Z,68.35
2017-06-05T08:47:45.064Z,69.31
2017-06-05T08:48:25.592Z,68.9
2017-06-05T08:49:06.048Z,69.7
2017-06-05T08:49:46.584Z,68.99
2017-06-05T08:50:27.034Z,69.22
2017-06-05T08:51:07.624Z,69.02
2017-06-05T08:51:48.177Z,68.64
2017-06-05T08:52:28.632Z,67.93